Time;durP1;ratioP1;P1;durP2;ratioP2;P2;SDS_P1;SDS_P2;PMS_P1;PMS_P2;Temp;Humidity;BMP_temperature;BMP_pressure;BME280_temperature;BME280_humidity;BME280_pressure;Samples;Min_cycle;Max_cycle;Signal;HPM_P1;HPM_P2
2019/12/30 00:00:16;;;;;;;26;23.5;;;;;;;;;;;;;
2019/12/30 00:02:41;;;;;;;27.9;25.2;;;;;;;;;;;;;
2019/12/30 00:05:06;;;;;;;28.9;25.9;;;;;;;;;;;;;
2019/12/30 00:07:31;;;;;;;26.3;23.8;;;;;;;;;;;;;
2019/12/30 00:09:56;;;;;;;26.5;24;;;;;;;;;;;;;
2019/12/30 00:12:21;;;;;;;26.1;23.6;;;;;;;;;;;;;
2019/12/30 00:14:46;;;;;;;27.1;24.5;;;;;;;;;;;;;
2019/12/30 00:17:11;;;;;;;26.4;23.7;;;;;;;;;;;;;
2019/12/30 00:19:36;;;;;;;27.6;24.9;;;;;;;;;;;;;
2019/12/30 00:22:01;;;;;;;29.5;26.5;;;;;;;;;;;;;
2019/12/30 00:24:26;;;;;;;27.7;25;;;;;;;;;;;;;
2019/12/30 00:26:52;;;;;;;28.3;25.4;;;;;;;;;;;;;
2019/12/30 00:29:17;;;;;;;27.3;24.6;;;;;;;;;;;;;
2019/12/30 00:31:42;;;;;;;27.9;25.2;;;;;;;;;;;;;
2019/12/30 00:34:07;;;;;;;27.1;24.4;;;;;;;;;;;;;
2019/12/30 00:36:32;;;;;;;27.7;24.9;;;;;;;;;;;;;
2019/12/30 00:38:57;;;;;;;28.2;25.3;;;;;;;;;;;;;
2019/12/30 00:41:22;;;;;;;27.3;24.7;;;;;;;;;;;;;
2019/12/30 00:43:47;;;;;;;27.3;24.7;;;;;;;;;;;;;
2019/12/30 00:46:12;;;;;;;27.6;24.9;;;;;;;;;;;;;
2019/12/30 00:48:38;;;;;;;26.9;24.3;;;;;;;;;;;;;
2019/12/30 00:51:03;;;;;;;26.1;23.6;;;;;;;;;;;;;
2019/12/30 00:53:28;;;;;;;27.9;25;;;;;;;;;;;;;
2019/12/30 00:55:53;;;;;;;27.5;24.8;;;;;;;;;;;;;
2019/12/30 00:58:18;;;;;;;27;24.3;;;;;;;;;;;;;
2019/12/30 01:00:43;;;;;;;26.6;24.1;;;;;;;;;;;;;
2019/12/30 01:05:37;;;;;;;25.8;23.2;;;;;;;;;;;;;
2019/12/30 01:07:58;;;;;;;26;23.5;;;;;;;;;;;;;
2019/12/30 01:10:23;;;;;;;27;24.4;;;;;;;;;;;;;
2019/12/30 01:12:48;;;;;;;28.2;25.4;;;;;;;;;;;;;
2019/12/30 01:15:13;;;;;;;27.3;24.6;;;;;;;;;;;;;
2019/12/30 01:17:38;;;;;;;26.8;24.2;;;;;;;;;;;;;
2019/12/30 01:20:03;;;;;;;27.3;24.6;;;;;;;;;;;;;
2019/12/30 01:22:29;;;;;;;26.2;23.7;;;;;;;;;;;;;
2019/12/30 01:24:54;;;;;;;26.6;23.9;;;;;;;;;;;;;
2019/12/30 01:27:19;;;;;;;27.6;24.9;;;;;;;;;;;;;
2019/12/30 01:29:44;;;;;;;26.9;24.3;;;;;;;;;;;;;
2019/12/30 01:32:09;;;;;;;26.1;23.6;;;;;;;;;;;;;
2019/12/30 01:34:34;;;;;;;27.4;24.7;;;;;;;;;;;;;
2019/12/30 01:36:59;;;;;;;27;24.3;;;;;;;;;;;;;
2019/12/30 01:39:25;;;;;;;28.1;25.2;;;;;;;;;;;;;
2019/12/30 01:41:50;;;;;;;27.2;24.6;;;;;;;;;;;;;
2019/12/30 01:44:15;;;;;;;25.7;23.2;;;;;;;;;;;;;
2019/12/30 01:46:40;;;;;;;26;23.4;;;;;;;;;;;;;
2019/12/30 01:49:05;;;;;;;26.3;23.8;;;;;;;;;;;;;
2019/12/30 01:51:30;;;;;;;27.7;25.1;;;;;;;;;;;;;
2019/12/30 01:53:55;;;;;;;26.6;24;;;;;;;;;;;;;
2019/12/30 01:59:15;;;;;;;28.6;25.6;;;;;;;;;;;;;
2019/12/30 02:03:40;;;;;;;25.7;23.2;;;;;;;;;;;;;
2019/12/30 02:06:00;;;;;;;26.2;23.7;;;;;;;;;;;;;
2019/12/30 02:08:26;;;;;;;26.2;23.6;;;;;;;;;;;;;
2019/12/30 02:10:51;;;;;;;25.5;23;;;;;;;;;;;;;
2019/12/30 02:13:16;;;;;;;25;22.6;;;;;;;;;;;;;
2019/12/30 02:15:41;;;;;;;25.9;23.4;;;;;;;;;;;;;
2019/12/30 02:18:06;;;;;;;25.7;23.2;;;;;;;;;;;;;
2019/12/30 02:20:31;;;;;;;26.3;23.7;;;;;;;;;;;;;
2019/12/30 02:22:56;;;;;;;26.5;23.9;;;;;;;;;;;;;
2019/12/30 02:25:21;;;;;;;25.9;23.4;;;;;;;;;;;;;
2019/12/30 02:27:46;;;;;;;25.9;23.4;;;;;;;;;;;;;
2019/12/30 02:30:11;;;;;;;27.2;24.5;;;;;;;;;;;;;
2019/12/30 02:32:36;;;;;;;27.1;24.4;;;;;;;;;;;;;
2019/12/30 02:35:01;;;;;;;26.3;23.8;;;;;;;;;;;;;
2019/12/30 02:37:26;;;;;;;26.8;24.1;;;;;;;;;;;;;
2019/12/30 02:39:52;;;;;;;25.8;23.3;;;;;;;;;;;;;
2019/12/30 02:42:17;;;;;;;26.7;24.1;;;;;;;;;;;;;
2019/12/30 02:44:42;;;;;;;26.7;24.1;;;;;;;;;;;;;
2019/12/30 02:47:07;;;;;;;26.6;23.9;;;;;;;;;;;;;
2019/12/30 02:49:32;;;;;;;26.2;23.6;;;;;;;;;;;;;
2019/12/30 02:51:57;;;;;;;26.8;24.2;;;;;;;;;;;;;
2019/12/30 02:54:22;;;;;;;26.3;23.7;;;;;;;;;;;;;
2019/12/30 02:56:47;;;;;;;27.5;24.8;;;;;;;;;;;;;
2019/12/30 02:59:12;;;;;;;26.3;23.7;;;;;;;;;;;;;
2019/12/30 03:01:37;;;;;;;26.2;23.7;;;;;;;;;;;;;
2019/12/30 03:04:02;;;;;;;26.3;23.7;;;;;;;;;;;;;
2019/12/30 03:06:28;;;;;;;27.4;24.6;;;;;;;;;;;;;
2019/12/30 03:08:53;;;;;;;26.2;23.6;;;;;;;;;;;;;
2019/12/30 03:11:18;;;;;;;25.6;23.2;;;;;;;;;;;;;
2019/12/30 03:13:43;;;;;;;25.9;23.4;;;;;;;;;;;;;
2019/12/30 03:16:08;;;;;;;26.6;24;;;;;;;;;;;;;
2019/12/30 03:18:33;;;;;;;26.4;23.8;;;;;;;;;;;;;
2019/12/30 03:20:58;;;;;;;26.2;23.7;;;;;;;;;;;;;
2019/12/30 03:23:23;;;;;;;26.3;23.6;;;;;;;;;;;;;
2019/12/30 03:25:48;;;;;;;26.3;23.6;;;;;;;;;;;;;
2019/12/30 03:28:13;;;;;;;26;23.5;;;;;;;;;;;;;
2019/12/30 03:30:38;;;;;;;26;23.4;;;;;;;;;;;;;
2019/12/30 03:33:03;;;;;;;27.5;24.7;;;;;;;;;;;;;
2019/12/30 03:35:28;;;;;;;25.5;23;;;;;;;;;;;;;
2019/12/30 03:37:53;;;;;;;25.5;23;;;;;;;;;;;;;
2019/12/30 03:40:19;;;;;;;25.9;23.3;;;;;;;;;;;;;
2019/12/30 03:42:44;;;;;;;26.3;23.7;;;;;;;;;;;;;
2019/12/30 03:45:09;;;;;;;27;24.4;;;;;;;;;;;;;
2019/12/30 03:47:34;;;;;;;27.7;25;;;;;;;;;;;;;
2019/12/30 03:49:59;;;;;;;27.5;24.8;;;;;;;;;;;;;
2019/12/30 03:52:24;;;;;;;24.9;22.5;;;;;;;;;;;;;
2019/12/30 03:54:49;;;;;;;25.7;23.2;;;;;;;;;;;;;
2019/12/30 03:57:14;;;;;;;26.6;23.9;;;;;;;;;;;;;
2019/12/30 03:59:39;;;;;;;26.9;24.2;;;;;;;;;;;;;
2019/12/30 04:02:28;;;;;;;26.8;24.2;;;;;;;-2.49;95.17383;977.7303;;;;
2019/12/30 04:04:53;;;;;;;25.2;22.8;;;;;;;-2.44;95.16406;977.6301;;;;
2019/12/30 04:07:18;;;;;;;26.1;23.5;;;;;;;-2.37;93.88477;977.6189;;;;
2019/12/30 04:09:43;;;;;;;25.7;23.2;;;;;;;-2.19;93.80273;977.5655;;;;
2019/12/30 04:12:08;;;;;;;26.3;23.7;;;;;;;-2.39;93.77832;977.5941;;;;
2019/12/30 04:17:00;;;;;;;25.9;23.3;;;;;;;-2.38;94.09375;977.5212;;;;
2019/12/30 04:19:31;;;;;;;26.4;23.7;;;;;;;-2.52;94.73242;977.4959;;;;
2019/12/30 04:21:56;;;;;;;26.4;23.7;;;;;;;-2.64;95.63086;977.5238;;;;
2019/12/30 04:26:43;;;;;;;27.1;24.4;;;;;;;-2.67;95.37891;977.5283;;;;
2019/12/30 04:31:38;;;;;;;27.3;24.5;;;;;;;-2.67;96.36035;977.5496;;;;
2019/12/30 04:33:54;;;;;;;26.9;24.2;;;;;;;-2.67;95.60254;977.5553;;;;
2019/12/30 04:36:19;;;;;;;25.6;23.1;;;;;;;-2.69;95.11816;977.5296;;;;
2019/12/30 04:38:44;;;;;;;26.3;23.7;;;;;;;-2.76;96.27539;977.5419;;;;
2019/12/30 04:41:09;;;;;;;26.9;24.2;;;;;;;-2.69;96.80078;977.5385;;;;
2019/12/30 04:43:34;;;;;;;27.5;24.7;;;;;;;-2.65;95.99902;977.5442;;;;
2019/12/30 04:45:59;;;;;;;25.1;22.6;;;;;;;-2.64;95.09668;977.4802;;;;
2019/12/30 04:48:24;;;;;;;25.3;22.8;;;;;;;-2.53;95.56738;977.4024;;;;
2019/12/30 04:50:50;;;;;;;24.6;22.2;;;;;;;-2.16;92.95996;977.4083;;;;
2019/12/30 04:53:15;;;;;;;25.2;22.6;;;;;;;-2.41;94.22168;977.4341;;;;
2019/12/30 04:55:40;;;;;;;25.7;23.1;;;;;;;-2.44;95.40918;977.4083;;;;
2019/12/30 04:58:05;;;;;;;26.7;24;;;;;;;-2.45;95.65332;977.4165;;;;
2019/12/30 05:00:30;;;;;;;24.9;22.5;;;;;;;-2.41;94.93555;977.3942;;;;
2019/12/30 05:02:55;;;;;;;26.2;23.5;;;;;;;-2.4;95.25195;977.3918;;;;
2019/12/30 05:05:20;;;;;;;25;22.5;;;;;;;-2.36;94.94824;977.3839;;;;
2019/12/30 05:07:45;;;;;;;24.5;22.1;;;;;;;-2.34;94.52734;977.3948;;;;
2019/12/30 05:10:10;;;;;;;25.9;23.4;;;;;;;-2.46;94.87891;977.4494;;;;
2019/12/30 05:12:35;;;;;;;25.1;22.6;;;;;;;-2.48;94.67578;977.3745;;;;
2019/12/30 05:15:00;;;;;;;25.8;23.2;;;;;;;-2.59;95.22949;977.3173;;;;
2019/12/30 05:17:26;;;;;;;26.1;23.5;;;;;;;-2.42;94.38867;977.2459;;;;
2019/12/30 05:19:51;;;;;;;25.7;23;;;;;;;-2.5;95.50879;977.2656;;;;
2019/12/30 05:22:16;;;;;;;24.3;22;;;;;;;-2.53;95.06543;977.2946;;;;
2019/12/30 05:24:41;;;;;;;25.1;22.6;;;;;;;-2.52;95.61426;977.3666;;;;
2019/12/30 05:27:06;;;;;;;25.6;23;;;;;;;-2.53;95.04297;977.4423;;;;
2019/12/30 05:29:31;;;;;;;24;21.7;;;;;;;-2.49;94.70508;977.4952;;;;
2019/12/30 05:31:56;;;;;;;24.6;22.2;;;;;;;-2.5;94.04688;977.4363;;;;
2019/12/30 05:34:21;;;;;;;24.9;22.4;;;;;;;-2.5;94.66113;977.4938;;;;
2019/12/30 05:36:46;;;;;;;24.2;21.8;;;;;;;-2.55;94.34766;977.4052;;;;
2019/12/30 05:39:12;;;;;;;23.2;20.9;;;;;;;-2.22;93.03516;977.4082;;;;
2019/12/30 05:41:37;;;;;;;24.5;22.1;;;;;;;-2.19;92.16016;977.3755;;;;
2019/12/30 05:44:02;;;;;;;25.5;22.9;;;;;;;-2.59;93.79199;977.3017;;;;
2019/12/30 05:46:27;;;;;;;26.1;23.5;;;;;;;-2.62;94.98926;977.3153;;;;
2019/12/30 05:48:52;;;;;;;24.9;22.5;;;;;;;-2.51;94.31055;977.304;;;;
2019/12/30 05:51:17;;;;;;;25.8;23.2;;;;;;;-2.66;94.46582;977.3162;;;;
2019/12/30 05:53:42;;;;;;;25.3;22.8;;;;;;;-2.62;94.50781;977.342;;;;
2019/12/30 05:56:07;;;;;;;25.5;22.9;;;;;;;-2.47;93.4502;977.291;;;;
2019/12/30 05:58:32;;;;;;;27.1;24.4;;;;;;;-2.63;93.96094;977.3194;;;;
2019/12/30 06:00:57;;;;;;;27.7;25;;;;;;;-2.71;95.41309;977.2766;;;;
2019/12/30 06:03:22;;;;;;;26.7;24;;;;;;;-2.78;94.97559;977.2828;;;;
2019/12/30 06:05:48;;;;;;;26.2;23.6;;;;;;;-2.71;95.25879;977.2615;;;;
2019/12/30 06:08:13;;;;;;;26.1;23.5;;;;;;;-2.6;95.88672;977.2711;;;;
2019/12/30 06:10:38;;;;;;;25.6;23.1;;;;;;;-2.48;95.01953;977.1983;;;;
2019/12/30 06:13:03;;;;;;;26;23.3;;;;;;;-2.38;93.70215;977.1707;;;;
2019/12/30 06:15:28;;;;;;;26.1;23.4;;;;;;;-2.44;93.91406;977.1719;;;;
2019/12/30 06:17:53;;;;;;;25.1;22.5;;;;;;;-2.48;94.26074;977.1504;;;;
2019/12/30 06:20:18;;;;;;;26.4;23.8;;;;;;;-2.58;94.77441;977.1752;;;;
2019/12/30 06:22:43;;;;;;;26.3;23.7;;;;;;;-2.71;95.55176;977.1281;;;;
2019/12/30 06:25:28;;;;;;;25.1;22.5;;;;;;;-2.52;94.35352;977.1199;;;;
2019/12/30 06:27:53;;;;;;;26.1;23.5;;;;;;;-2.66;94.19824;977.1295;;;;
2019/12/30 06:30:18;;;;;;;24.2;21.9;;;;;;;-2.42;92.71191;977.1292;;;;
2019/12/30 06:32:43;;;;;;;25.6;23;;;;;;;-2.48;93.07813;977.1437;;;;
2019/12/30 06:35:08;;;;;;;24.8;22.2;;;;;;;-2.57;93.4707;977.192;;;;
2019/12/30 06:37:33;;;;;;;25.7;23.1;;;;;;;-2.44;93.99219;977.1959;;;;
2019/12/30 06:39:58;;;;;;;24.2;21.8;;;;;;;-2.48;94.18457;977.2262;;;;
2019/12/30 06:42:23;;;;;;;24.9;22.4;;;;;;;-2.51;93.12793;977.1881;;;;
2019/12/30 06:44:49;;;;;;;24.1;21.8;;;;;;;-2.44;91.89355;977.1353;;;;
2019/12/30 06:47:14;;;;;;;25.1;22.6;;;;;;;-2.65;93.76758;977.1629;;;;
2019/12/30 06:49:39;;;;;;;25.5;22.9;;;;;;;-2.63;95.07715;977.2053;;;;
2019/12/30 06:52:04;;;;;;;24.9;22.4;;;;;;;-2.67;94.16309;977.1889;;;;
2019/12/30 06:54:29;;;;;;;23.8;21.4;;;;;;;-2.59;93.9668;977.2731;;;;
2019/12/30 06:56:54;;;;;;;24.5;22;;;;;;;-2.59;93.25488;977.2917;;;;
2019/12/30 06:59:20;;;;;;;24.1;21.6;;;;;;;-2.54;93.49902;977.3159;;;;
2019/12/30 07:01:45;;;;;;;24.6;22.1;;;;;;;-2.61;92.87109;977.3035;;;;
2019/12/30 07:04:10;;;;;;;23.6;21.3;;;;;;;-2.72;93.46094;977.2659;;;;
2019/12/30 07:06:35;;;;;;;24.1;21.7;;;;;;;-2.59;93.84863;977.2747;;;;
2019/12/30 07:09:00;;;;;;;24.6;22.1;;;;;;;-2.48;93.83691;977.3435;;;;
2019/12/30 07:11:25;;;;;;;25.5;22.8;;;;;;;-2.66;94.83398;977.3497;;;;
2019/12/30 07:13:51;;;;;;;25;22.4;;;;;;;-2.61;93.6416;977.4081;;;;
2019/12/30 07:16:16;;;;;;;27.5;24.7;;;;;;;-2.65;93.75586;977.3772;;;;
2019/12/30 07:21:12;;;;;;;25.9;23.3;;;;;;;-2.89;94.7168;977.319;;;;
2019/12/30 07:23:31;;;;;;;25.4;22.9;;;;;;;-2.77;93.90625;977.2726;;;;
2019/12/30 07:25:56;;;;;;;25.6;23.1;;;;;;;-3;95.4707;977.3859;;;;
2019/12/30 07:28:21;;;;;;;24.9;22.4;;;;;;;-2.9;95.05859;977.3181;;;;
2019/12/30 07:30:46;;;;;;;25.6;23.1;;;;;;;-2.95;94.99219;977.2986;;;;
2019/12/30 07:33:11;;;;;;;25.1;22.6;;;;;;;-2.89;94.80566;977.3195;;;;
2019/12/30 07:35:37;;;;;;;26.2;23.6;;;;;;;-2.94;95.69922;977.4131;;;;
2019/12/30 07:38:02;;;;;;;25.2;22.6;;;;;;;-2.94;95.6416;977.4016;;;;
2019/12/30 07:40:27;;;;;;;24.9;22.4;;;;;;;-2.64;94.71582;977.4303;;;;
2019/12/30 07:42:52;;;;;;;24.4;22;;;;;;;-2.52;93.18164;977.3571;;;;
2019/12/30 07:45:17;;;;;;;24.6;22.2;;;;;;;-2.74;94.22656;977.3979;;;;
2019/12/30 07:47:42;;;;;;;26.3;23.7;;;;;;;-2.83;95.1748;977.4293;;;;
2019/12/30 07:50:07;;;;;;;25.4;22.9;;;;;;;-2.67;94.29688;977.4272;;;;
2019/12/30 07:52:32;;;;;;;25.6;23.2;;;;;;;-2.59;94.60547;977.413;;;;
2019/12/30 07:54:57;;;;;;;23.9;21.6;;;;;;;-2.45;93.18652;977.4095;;;;
2019/12/30 07:57:22;;;;;;;23.9;21.5;;;;;;;-2.37;92.22168;977.503;;;;
2019/12/30 07:59:48;;;;;;;22.7;20.4;;;;;;;-2.48;93.12402;977.5167;;;;
2019/12/30 08:02:13;;;;;;;22.9;20.5;;;;;;;-2.58;92.42188;977.4867;;;;
2019/12/30 08:04:38;;;;;;;23.6;21.2;;;;;;;-2.7;93.07422;977.4738;;;;
2019/12/30 08:07:03;;;;;;;21.7;19.6;;;;;;;-2.54;92.97656;977.4808;;;;
2019/12/30 08:09:28;;;;;;;22.3;20.1;;;;;;;-2.34;92.38379;977.4473;;;;
2019/12/30 08:11:53;;;;;;;22.9;20.5;;;;;;;-2.42;93.60742;977.4656;;;;
2019/12/30 08:14:18;;;;;;;23;20.6;;;;;;;-2.39;93.74512;977.4647;;;;
2019/12/30 08:16:43;;;;;;;23.3;20.8;;;;;;;-2.37;92.13184;977.471;;;;
2019/12/30 08:19:08;;;;;;;22.8;20.5;;;;;;;-2.36;93.39551;977.5084;;;;
2019/12/30 08:21:34;;;;;;;23.3;20.9;;;;;;;-2.39;92.58594;977.5256;;;;
2019/12/30 08:23:59;;;;;;;22;19.7;;;;;;;-2.34;92.00391;977.5245;;;;
2019/12/30 08:26:24;;;;;;;22.4;20.1;;;;;;;-2.37;92.47852;977.5892;;;;
2019/12/30 08:28:50;;;;;;;22.7;20.5;;;;;;;-2.37;93.14648;977.5913;;;;
2019/12/30 08:31:15;;;;;;;22.1;19.8;;;;;;;-2.2;91.48633;977.6232;;;;
2019/12/30 08:33:40;;;;;;;22.9;20.6;;;;;;;-2.2;91.77832;977.5369;;;;
2019/12/30 08:36:05;;;;;;;20.6;18.6;;;;;;;-1.98;90.86621;977.4771;;;;
2019/12/30 08:38:31;;;;;;;21.7;19.5;;;;;;;-1.94;91.56738;977.4833;;;;
2019/12/30 08:40:56;;;;;;;22.7;20.4;;;;;;;-1.92;92.04102;977.4684;;;;
2019/12/30 08:43:21;;;;;;;22.7;20.3;;;;;;;-1.99;91.41211;977.4675;;;;
2019/12/30 08:45:46;;;;;;;22;19.9;;;;;;;-1.79;91.47754;977.4303;;;;
2019/12/30 08:48:11;;;;;;;21.3;19.2;;;;;;;-1.67;90.35254;977.4381;;;;
2019/12/30 08:50:37;;;;;;;20.6;18.5;;;;;;;-1.83;90.31641;977.4171;;;;
2019/12/30 08:53:02;;;;;;;22.5;20.3;;;;;;;-1.92;91.33691;977.435;;;;
2019/12/30 08:55:28;;;;;;;22.3;20.1;;;;;;;-1.72;90.48633;977.3974;;;;
2019/12/30 08:57:53;;;;;;;22.7;20.3;;;;;;;-1.53;91.11816;977.3242;;;;
2019/12/30 09:00:18;;;;;;;22.8;20.5;;;;;;;-1.52;90.90723;977.3328;;;;
2019/12/30 09:02:43;;;;;;;22.2;20;;;;;;;-1.5;90.39844;977.2795;;;;
2019/12/30 09:05:08;;;;;;;21.4;19.3;;;;;;;-1.44;89.8623;977.311;;;;
2019/12/30 09:07:33;;;;;;;20.8;18.7;;;;;;;-1.33;89.8291;977.231;;;;
2019/12/30 09:09:59;;;;;;;19.9;18;;;;;;;-1.17;89.78711;977.3105;;;;
2019/12/30 09:12:24;;;;;;;20.6;18.5;;;;;;;-1.07;88.35254;977.3084;;;;
2019/12/30 09:14:50;;;;;;;21.3;19.2;;;;;;;-1.15;88.53711;977.233;;;;
2019/12/30 09:17:15;;;;;;;20.4;18.4;;;;;;;-1.16;89.6416;977.2606;;;;
2019/12/30 09:19:41;;;;;;;21.8;19.7;;;;;;;-1.06;89.25;977.235;;;;
2019/12/30 09:22:06;;;;;;;21.8;19.5;;;;;;;-1.04;88.25684;977.202;;;;
2019/12/30 09:24:32;;;;;;;19.6;17.6;;;;;;;-0.85;87.63574;977.1627;;;;
2019/12/30 09:26:57;;;;;;;20.1;18.1;;;;;;;-1.05;88.14453;977.1035;;;;
2019/12/30 09:29:23;;;;;;;21.3;19.1;;;;;;;-1.04;89.41211;977.1122;;;;
2019/12/30 09:31:48;;;;;;;21.6;19.4;;;;;;;-0.86;88.09473;977.0806;;;;
2019/12/30 09:34:13;;;;;;;20.3;18.2;;;;;;;-0.73;87.74023;977.0873;;;;
2019/12/30 09:36:38;;;;;;;20.3;18.2;;;;;;;-0.55;87.10449;977.0826;;;;
2019/12/30 09:39:04;;;;;;;20.6;18.4;;;;;;;-0.48;86.66895;977.0997;;;;
2019/12/30 09:41:29;;;;;;;19.9;17.9;;;;;;;-0.56;87.25781;977.0829;;;;
2019/12/30 09:43:54;;;;;;;19.8;17.8;;;;;;;-0.57;87.38086;977.0886;;;;
2019/12/30 09:48:44;;;;;;;22;19.5;;;;;;;-0.54;88.73242;977.0862;;;;
2019/12/30 09:51:09;;;;;;;20.7;18.6;;;;;;;-0.44;86.66895;977.0804;;;;
2019/12/30 09:53:34;;;;;;;20.4;18.3;;;;;;;-0.4;86.46289;977.0066;;;;
2019/12/30 09:55:59;;;;;;;19.6;17.6;;;;;;;-0.35;86.57324;976.997;;;;
2019/12/30 09:58:25;;;;;;;20;18;;;;;;;-0.21;86.27734;976.9572;;;;
2019/12/30 10:00:50;;;;;;;20;17.9;;;;;;;-0.21;86.70313;976.8979;;;;
2019/12/30 10:03:15;;;;;;;19.2;17.2;;;;;;;-0.05;85.98438;976.8589;;;;
2019/12/30 10:05:40;;;;;;;19.6;17.7;;;;;;;-0.01;85.39648;976.8348;;;;
2019/12/30 10:08:05;;;;;;;19.7;17.6;;;;;;;0.18;85.08789;976.8011;;;;
2019/12/30 10:10:30;;;;;;;19.7;17.7;;;;;;;0.11;85.73633;976.7809;;;;
2019/12/30 10:12:55;;;;;;;19.8;17.8;;;;;;;0.07;85.94043;976.8057;;;;
2019/12/30 10:15:20;;;;;;;20;17.9;;;;;;;;;;;;;
2019/12/30 10:17:45;;;;;;;19.1;17.1;;;;;;;;;;;;;
2019/12/30 10:20:10;;;;;;;17.8;16;;;;;;;;;;;;;
2019/12/30 10:22:36;;;;;;;17.8;16;;;;;;;;;;;;;
2019/12/30 10:25:01;;;;;;;18.9;17;;;;;;;;;;;;;
2019/12/30 10:27:26;;;;;;;18.5;16.5;;;;;;;;;;;;;
2019/12/30 10:29:51;;;;;;;18.7;16.8;;;;;;;;;;;;;
2019/12/30 10:32:16;;;;;;;19.4;17.4;;;;;;;;;;;;;
2019/12/30 10:35:59;;;;;;;19.6;17.6;;;;;;;;;;;;;
2019/12/30 10:39:31;;;;;;;18;16.2;;;;;;;;;;;;;
2019/12/30 10:41:56;;;;;;;18.3;16.4;;;;;;;;;;;;;
2019/12/30 10:44:21;;;;;;;17;15.3;;;;;;;;;;;;;
2019/12/30 10:46:47;;;;;;;18;16.3;;;;;;;;;;;;;
2019/12/30 10:49:12;;;;;;;17.8;16;;;;;;;;;;;;;
2019/12/30 10:51:37;;;;;;;18.1;16.2;;;;;;;;;;;;;
2019/12/30 10:54:02;;;;;;;17.5;15.8;;;;;;;;;;;;;
2019/12/30 10:56:27;;;;;;;17.9;16.1;;;;;;;;;;;;;
2019/12/30 10:58:52;;;;;;;18;16.2;;;;;;;;;;;;;
2019/12/30 11:01:17;;;;;;;17;15.2;;;;;;;;;;;;;
2019/12/30 11:03:43;;;;;;;16.6;14.9;;;;;;;;;;;;;
2019/12/30 11:06:08;;;;;;;17.2;15.4;;;;;;;;;;;;;
2019/12/30 11:08:33;;;;;;;16.4;14.6;;;;;;;;;;;;;
2019/12/30 11:10:58;;;;;;;15.8;14.2;;;;;;;;;;;;;
2019/12/30 11:13:23;;;;;;;16.6;14.1;;;;;;;;;;;;;
2019/12/30 11:15:49;;;;;;;15.6;14;;;;;;;;;;;;;
2019/12/30 11:18:14;;;;;;;14.4;12.9;;;;;;;;;;;;;
2019/12/30 11:20:39;;;;;;;14;12.5;;;;;;;;;;;;;
2019/12/30 11:23:04;;;;;;;15.3;13.4;;;;;;;;;;;;;
2019/12/30 11:25:29;;;;;;;14.6;13.1;;;;;;;;;;;;;
2019/12/30 11:27:54;;;;;;;14.3;12.8;;;;;;;;;;;;;
2019/12/30 11:30:19;;;;;;;13.5;12.1;;;;;;;;;;;;;
2019/12/30 11:32:44;;;;;;;13.6;12.1;;;;;;;;;;;;;
2019/12/30 11:35:10;;;;;;;12.8;11.6;;;;;;;;;;;;;
2019/12/30 11:37:35;;;;;;;14.5;13;;;;;;;;;;;;;
2019/12/30 11:40:00;;;;;;;13.7;12.4;;;;;;;;;;;;;
2019/12/30 11:42:25;;;;;;;14.6;12.5;;;;;;;;;;;;;
2019/12/30 11:44:50;;;;;;;13;11.7;;;;;;;;;;;;;
2019/12/30 11:47:15;;;;;;;13.2;11.9;;;;;;;;;;;;;
2019/12/30 11:49:40;;;;;;;13.4;12.1;;;;;;;;;;;;;
2019/12/30 11:52:05;;;;;;;13.5;12.1;;;;;;;;;;;;;
2019/12/30 11:54:30;;;;;;;14.3;12.9;;;;;;;;;;;;;
2019/12/30 11:56:56;;;;;;;14.3;12.8;;;;;;;;;;;;;
2019/12/30 11:59:21;;;;;;;13.9;12.5;;;;;;;;;;;;;
2019/12/30 12:01:46;;;;;;;14.3;12.9;;;;;;;;;;;;;
2019/12/30 12:04:11;;;;;;;13.5;12.1;;;;;;;;;;;;;
2019/12/30 12:06:36;;;;;;;12.9;11.6;;;;;;;;;;;;;
2019/12/30 12:09:01;;;;;;;13.1;11.8;;;;;;;;;;;;;
2019/12/30 12:11:26;;;;;;;12.8;11.5;;;;;;;;;;;;;
2019/12/30 12:13:51;;;;;;;13.2;11.8;;;;;;;;;;;;;
2019/12/30 12:16:16;;;;;;;12.5;11.2;;;;;;;;;;;;;
2019/12/30 12:18:41;;;;;;;14.5;12.5;;;;;;;;;;;;;
2019/12/30 12:21:07;;;;;;;13.1;11.8;;;;;;;;;;;;;
2019/12/30 12:23:32;;;;;;;12.7;11.4;;;;;;;;;;;;;
2019/12/30 12:25:57;;;;;;;12.6;11.3;;;;;;;;;;;;;
2019/12/30 12:28:22;;;;;;;13;11.2;;;;;;;;;;;;;
2019/12/30 12:30:47;;;;;;;12.4;11.1;;;;;;;;;;;;;
2019/12/30 12:33:12;;;;;;;12.5;11.2;;;;;;;;;;;;;
2019/12/30 12:35:37;;;;;;;13.2;11.6;;;;;;;;;;;;;
2019/12/30 12:38:02;;;;;;;12.7;11.4;;;;;;;;;;;;;
2019/12/30 12:40:27;;;;;;;12.9;11.6;;;;;;;;;;;;;
2019/12/30 12:42:52;;;;;;;12.9;11.2;;;;;;;;;;;;;
2019/12/30 12:45:17;;;;;;;12.3;11.1;;;;;;;;;;;;;
2019/12/30 12:47:42;;;;;;;12.1;10.8;;;;;;;;;;;;;
2019/12/30 12:50:08;;;;;;;13.4;12.1;;;;;;;;;;;;;
2019/12/30 12:52:33;;;;;;;13;11.6;;;;;;;;;;;;;
2019/12/30 12:54:58;;;;;;;12.6;11.3;;;;;;;;;;;;;
2019/12/30 12:57:23;;;;;;;12.1;10.8;;;;;;;;;;;;;
2019/12/30 12:59:48;;;;;;;11.6;10.4;;;;;;;;;;;;;
2019/12/30 13:02:13;;;;;;;12.9;10.2;;;;;;;;;;;;;
2019/12/30 13:04:38;;;;;;;11.4;10.2;;;;;;;;;;;;;
2019/12/30 13:07:04;;;;;;;12.3;9.7;;;;;;;;;;;;;
2019/12/30 13:09:29;;;;;;;11.6;10.4;;;;;;;;;;;;;
2019/12/30 13:11:54;;;;;;;11.1;10;;;;;;;;;;;;;
2019/12/30 13:14:19;;;;;;;11.4;10.2;;;;;;;;;;;;;
2019/12/30 13:16:44;;;;;;;12.7;10.7;;;;;;;;;;;;;
2019/12/30 13:19:09;;;;;;;11.1;10;;;;;;;;;;;;;
2019/12/30 13:21:34;;;;;;;11.6;10.5;;;;;;;;;;;;;
2019/12/30 13:23:59;;;;;;;11.4;10.2;;;;;;;;;;;;;
2019/12/30 13:26:25;;;;;;;11.7;10.5;;;;;;;;;;;;;
2019/12/30 13:28:50;;;;;;;13.1;10.3;;;;;;;;;;;;;
2019/12/30 13:31:15;;;;;;;10.9;9.8;;;;;;;;;;;;;
2019/12/30 13:33:40;;;;;;;11.3;10.1;;;;;;;;;;;;;
2019/12/30 13:36:05;;;;;;;11.5;10.3;;;;;;;;;;;;;
2019/12/30 13:38:30;;;;;;;11.7;10.5;;;;;;;;;;;;;
2019/12/30 13:40:55;;;;;;;10.6;9.6;;;;;;;;;;;;;
2019/12/30 13:43:21;;;;;;;12.1;10.4;;;;;;;;;;;;;
2019/12/30 13:45:46;;;;;;;12.4;9.7;;;;;;;;;;;;;
2019/12/30 13:48:11;;;;;;;11.3;10.1;;;;;;;;;;;;;
2019/12/30 13:50:36;;;;;;;12.1;10.8;;;;;;;;;;;;;
2019/12/30 13:53:01;;;;;;;11.3;10.2;;;;;;;;;;;;;
2019/12/30 13:55:26;;;;;;;12.5;11;;;;;;;;;;;;;
2019/12/30 13:57:51;;;;;;;11.8;10.6;;;;;;;;;;;;;
2019/12/30 14:00:16;;;;;;;14;10.6;;;;;;;;;;;;;
2019/12/30 14:02:42;;;;;;;11;9.9;;;;;;;;;;;;;
2019/12/30 14:05:07;;;;;;;11.5;9.9;;;;;;;;;;;;;
2019/12/30 14:07:32;;;;;;;11.1;9.1;;;;;;;;;;;;;
2019/12/30 14:09:57;;;;;;;10.7;9.6;;;;;;;;;;;;;
2019/12/30 14:12:22;;;;;;;10.2;9.2;;;;;;;;;;;;;
2019/12/30 14:14:47;;;;;;;10.1;9.1;;;;;;;;;;;;;
2019/12/30 14:17:12;;;;;;;9.5;8.6;;;;;;;;;;;;;
2019/12/30 14:19:37;;;;;;;10.2;9.2;;;;;;;;;;;;;
2019/12/30 14:22:03;;;;;;;9.6;8.6;;;;;;;;;;;;;
2019/12/30 14:24:28;;;;;;;10.5;9.5;;;;;;;;;;;;;
2019/12/30 14:26:53;;;;;;;9.4;8.4;;;;;;;;;;;;;
2019/12/30 14:29:18;;;;;;;9.7;8.7;;;;;;;;;;;;;
2019/12/30 14:31:43;;;;;;;10.5;9.5;;;;;;;;;;;;;
2019/12/30 14:34:08;;;;;;;9.5;8.6;;;;;;;;;;;;;
2019/12/30 14:36:33;;;;;;;9.7;8.7;;;;;;;;;;;;;
2019/12/30 14:38:58;;;;;;;10.1;8.9;;;;;;;;;;;;;
2019/12/30 14:41:23;;;;;;;10.3;9.3;;;;;;;;;;;;;
2019/12/30 14:43:48;;;;;;;11.2;9.9;;;;;;;;;;;;;
2019/12/30 14:46:13;;;;;;;10.2;9.1;;;;;;;;;;;;;
2019/12/30 14:48:39;;;;;;;10.7;9.6;;;;;;;;;;;;;
2019/12/30 14:51:04;;;;;;;10.1;9.1;;;;;;;;;;;;;
2019/12/30 14:53:29;;;;;;;12.4;11.1;;;;;;;;;;;;;
2019/12/30 14:55:54;;;;;;;11.1;10;;;;;;;;;;;;;
2019/12/30 14:58:19;;;;;;;10.7;9.6;;;;;;;;;;;;;
2019/12/30 15:00:44;;;;;;;11.4;10.2;;;;;;;;;;;;;
2019/12/30 15:03:09;;;;;;;13.4;12.1;;;;;;;;;;;;;
2019/12/30 15:05:34;;;;;;;14.7;13.2;;;;;;;;;;;;;
2019/12/30 15:07:59;;;;;;;14.8;13.3;;;;;;;;;;;;;
2019/12/30 15:10:25;;;;;;;15.3;12.5;;;;;;;;;;;;;
2019/12/30 15:12:50;;;;;;;15.1;13.5;;;;;;;;;;;;;
2019/12/30 15:15:15;;;;;;;15.6;14;;;;;;;;;;;;;
2019/12/30 15:17:40;;;;;;;15.6;13.8;;;;;;;;;;;;;
2019/12/30 15:20:05;;;;;;;18.2;14.2;;;;;;;;;;;;;
2019/12/30 15:22:48;;;;;;;15.8;14.1;;;;;;;;;;;;;
2019/12/30 15:24:55;;;;;;;16;14.3;;;;;;;;;;;;;
2019/12/30 15:27:20;;;;;;;16.4;14.6;;;;;;;;;;;;;
2019/12/30 15:29:45;;;;;;;15.9;14.1;;;;;;;;;;;;;
2019/12/30 15:32:10;;;;;;;15.2;13.6;;;;;;;;;;;;;
2019/12/30 15:34:36;;;;;;;15.3;13.8;;;;;;;;;;;;;
2019/12/30 15:37:01;;;;;;;15.4;13.9;;;;;;;;;;;;;
2019/12/30 15:39:26;;;;;;;15.7;13.6;;;;;;;;;;;;;
2019/12/30 15:41:51;;;;;;;16;14.3;;;;;;;;;;;;;
2019/12/30 15:44:16;;;;;;;16;14.3;;;;;;;;;;;;;
2019/12/30 15:46:41;;;;;;;16.4;14.7;;;;;;;;;;;;;
2019/12/30 15:49:06;;;;;;;16.5;14.4;;;;;;;;;;;;;
2019/12/30 15:51:31;;;;;;;17.3;15.5;;;;;;;;;;;;;
2019/12/30 15:53:56;;;;;;;17.1;15.3;;;;;;;;;;;;;
2019/12/30 15:56:21;;;;;;;17.6;15.4;;;;;;;;;;;;;
2019/12/30 15:58:46;;;;;;;17.6;15.8;;;;;;;;;;;;;
2019/12/30 16:01:12;;;;;;;17.2;15.5;;;;;;;;;;;;;
2019/12/30 16:03:37;;;;;;;17;15.3;;;;;;;;;;;;;
2019/12/30 16:06:02;;;;;;;19.9;17.8;;;;;;;;;;;;;
2019/12/30 16:08:27;;;;;;;17.7;15.9;;;;;;;;;;;;;
2019/12/30 16:10:52;;;;;;;15.5;14;;;;;;;;;;;;;
2019/12/30 16:13:17;;;;;;;16.3;14.6;;;;;;;;;;;;;
2019/12/30 16:15:42;;;;;;;15.7;14.1;;;;;;;;;;;;;
2019/12/30 16:18:07;;;;;;;15.6;14;;;;;;;;;;;;;
2019/12/30 16:20:32;;;;;;;14.8;13.3;;;;;;;;;;;;;
2019/12/30 16:22:58;;;;;;;15.4;13.9;;;;;;;;;;;;;
2019/12/30 16:25:23;;;;;;;14.7;13.2;;;;;;;;;;;;;
2019/12/30 16:27:48;;;;;;;15.3;13.8;;;;;;;;;;;;;
2019/12/30 16:30:13;;;;;;;15.1;13.5;;;;;;;;;;;;;
2019/12/30 16:32:38;;;;;;;15.6;14.1;;;;;;;;;;;;;
2019/12/30 16:35:03;;;;;;;15.2;13.8;;;;;;;;;;;;;
2019/12/30 16:37:28;;;;;;;15.7;14.2;;;;;;;;;;;;;
2019/12/30 16:39:53;;;;;;;15.1;13.7;;;;;;;;;;;;;
2019/12/30 16:42:18;;;;;;;15.1;13.6;;;;;;;;;;;;;
2019/12/30 16:44:44;;;;;;;15.5;14;;;;;;;;;;;;;
2019/12/30 16:47:09;;;;;;;16.5;14.9;;;;;;;;;;;;;
2019/12/30 16:49:34;;;;;;;16.1;14.5;;;;;;;;;;;;;
2019/12/30 16:51:59;;;;;;;15.3;13.8;;;;;;;;;;;;;
2019/12/30 16:54:24;;;;;;;16.3;14.7;;;;;;;;;;;;;
2019/12/30 16:56:49;;;;;;;16.5;14.9;;;;;;;;;;;;;
2019/12/30 16:59:15;;;;;;;16.4;14.8;;;;;;;;;;;;;
2019/12/30 17:01:40;;;;;;;16.5;14.8;;;;;;;;;;;;;
2019/12/30 17:04:05;;;;;;;17;15.3;;;;;;;;;;;;;
2019/12/30 17:06:30;;;;;;;16.4;14.8;;;;;;;;;;;;;
2019/12/30 17:08:55;;;;;;;17;15.2;;;;;;;;;;;;;
2019/12/30 17:11:20;;;;;;;18.3;15.5;;;;;;;;;;;;;
2019/12/30 17:13:45;;;;;;;16.8;15.1;;;;;;;;;;;;;
2019/12/30 17:16:10;;;;;;;17.7;15.9;;;;;;;;;;;;;
2019/12/30 17:18:36;;;;;;;17.8;16;;;;;;;;;;;;;
2019/12/30 17:21:01;;;;;;;16.8;15.1;;;;;;;;;;;;;
2019/12/30 17:23:26;;;;;;;18.1;16.1;;;;;;;;;;;;;
2019/12/30 17:25:51;;;;;;;18.5;16.6;;;;;;;;;;;;;
2019/12/30 17:28:16;;;;;;;18.7;16.8;;;;;;;;;;;;;
2019/12/30 17:30:41;;;;;;;19;17;;;;;;;;;;;;;